Time;durP1;ratioP1;P1;durP2;ratioP2;P2;SDS_P1;SDS_P2;PMS_P1;PMS_P2;Temp;Humidity;BMP_temperature;BMP_pressure;BME280_temperature;BME280_humidity;BME280_pressure;Samples;Min_cycle;Max_cycle;Signal;HPM_P1;HPM_P2
2023/01/12 00:02:21;;;;;;;2.53;1.10;;;5.40;99.90;;;;;;5072100;28;20354;-52
2023/01/12 00:04:48;;;;;;;1.47;0.90;;;5.50;99.90;;;;;;5069611;28;20204;-52
2023/01/12 00:07:16;;;;;;;3.37;1.10;;;5.40;99.90;;;;;;5071467;28;20704;-52
2023/01/12 00:09:45;;;;;;;2.47;0.83;;;5.20;99.90;;;;;;5063169;28;20289;-52
2023/01/12 00:12:12;;;;;;;4.10;0.83;;;5.10;99.90;;;;;;5072442;28;20758;-52
2023/01/12 00:14:39;;;;;;;2.57;1.20;;;5.00;99.90;;;;;;5063624;28;20199;-51
2023/01/12 00:17:15;;;;;;;2.60;0.90;;;4.90;99.90;;;;;;5066606;28;20200;-51
2023/01/12 00:19:42;;;;;;;0.70;0.60;;;4.90;99.90;;;;;;5070578;28;20309;-52
2023/01/12 00:22:13;;;;;;;1.00;0.67;;;4.90;99.90;;;;;;5069609;28;20264;-51
2023/01/12 00:24:42;;;;;;;3.33;0.80;;;5.00;99.90;;;;;;5070014;28;20201;-52
2023/01/12 00:27:13;;;;;;;3.83;0.70;;;4.90;99.90;;;;;;5063176;28;20287;-52
2023/01/12 00:29:40;;;;;;;1.97;0.50;;;4.80;99.90;;;;;;5073164;28;20612;-52
2023/01/12 00:32:12;;;;;;;3.10;0.63;;;4.80;99.90;;;;;;5070286;28;20195;-52
2023/01/12 00:34:39;;;;;;;0.97;0.70;;;4.90;99.90;;;;;;5071969;28;20204;-51
2023/01/12 00:37:09;;;;;;;0.80;0.53;;;4.80;99.90;;;;;;5070967;28;20663;-52
2023/01/12 00:39:37;;;;;;;2.33;0.70;;;4.80;99.90;;;;;;5064841;28;20228;-53
2023/01/12 00:47:34;;;;;;;2.83;1.00;;;4.90;99.90;;;;;;5067768;28;20235;-53
2023/01/12 00:50:01;;;;;;;2.27;0.37;;;5.10;99.90;;;;;;5069330;28;20294;-52
2023/01/12 00:52:28;;;;;;;0.60;0.47;;;5.10;99.90;;;;;;5067459;28;20268;-52
2023/01/12 00:54:55;;;;;;;6.97;0.93;;;5.00;99.90;;;;;;5069369;28;20220;-51
2023/01/12 00:57:22;;;;;;;2.40;0.90;;;5.00;99.90;;;;;;5063024;28;20203;-52
2023/01/12 00:59:53;;;;;;;0.80;0.80;;;5.00;99.90;;;;;;5094750;28;20235;-51
2023/01/12 01:02:20;;;;;;;1.60;0.70;;;4.90;99.90;;;;;;5089582;28;20206;-50
2023/01/12 01:04:47;;;;;;;0.80;0.80;;;4.90;99.90;;;;;;5087588;28;20246;-51
2023/01/12 01:07:16;;;;;;;2.00;0.80;;;4.80;99.90;;;;;;5069621;28;20209;-51
2023/01/12 01:09:43;;;;;;;1.20;0.73;;;4.80;99.90;;;;;;5068464;28;20316;-53
2023/01/12 01:12:11;;;;;;;1.27;0.80;;;4.80;99.90;;;;;;5063898;28;20203;-52
2023/01/12 01:14:38;;;;;;;1.47;0.90;;;4.80;99.90;;;;;;5062678;28;20257;-53
2023/01/12 01:17:09;;;;;;;2.87;1.47;;;4.80;99.90;;;;;;5061932;28;20661;-53
2023/01/12 01:19:36;;;;;;;1.90;1.03;;;4.80;99.90;;;;;;5064817;28;20231;-52
2023/01/12 01:22:03;;;;;;;1.03;0.87;;;4.80;99.90;;;;;;5064567;28;20208;-52
2023/01/12 01:24:31;;;;;;;3.33;1.00;;;4.70;99.90;;;;;;5069996;28;20262;-52
2023/01/12 01:26:58;;;;;;;2.20;1.20;;;4.60;99.90;;;;;;5064500;28;20204;-52
2023/01/12 01:29:25;;;;;;;2.30;0.93;;;4.60;99.90;;;;;;5065111;28;20762;-51
2023/01/12 01:31:54;;;;;;;1.87;1.70;;;4.50;99.90;;;;;;5061974;28;20211;-50
2023/01/12 01:34:23;;;;;;;1.17;1.00;;;4.50;99.90;;;;;;5066890;28;20612;-52
2023/01/12 01:36:50;;;;;;;5.40;1.83;;;4.50;99.90;;;;;;5069880;28;20204;-52
2023/01/12 01:39:17;;;;;;;1.73;1.20;;;4.60;99.90;;;;;;5069737;28;20226;-52
2023/01/12 01:41:44;;;;;;;2.27;1.87;;;4.60;99.90;;;;;;5069813;28;20198;-51
2023/01/12 01:44:45;;;;;;;3.50;2.13;;;4.50;99.90;;;;;;5064747;28;20200;-52
2023/01/12 01:47:21;;;;;;;3.40;1.37;;;4.40;99.90;;;;;;5066139;28;20260;-52
2023/01/12 01:49:53;;;;;;;1.77;1.67;;;4.40;99.90;;;;;;5071546;28;20230;-52
2023/01/12 01:52:24;;;;;;;1.90;1.03;;;4.50;99.90;;;;;;5071406;28;20272;-52
2023/01/12 01:54:55;;;;;;;0.97;0.90;;;4.50;99.90;;;;;;5066335;28;20252;-51
2023/01/12 01:57:26;;;;;;;1.73;1.63;;;4.50;99.90;;;;;;5070007;28;20276;-52
2023/01/12 01:59:56;;;;;;;1.60;1.50;;;4.50;99.90;;;;;;5065158;28;20230;-52
2023/01/12 02:02:25;;;;;;;2.00;1.10;;;4.50;99.90;;;;;;5066791;28;20251;-52
2023/01/12 02:04:55;;;;;;;2.33;1.30;;;4.50;99.90;;;;;;5061345;28;20241;-53
2023/01/12 02:07:24;;;;;;;3.00;1.57;;;4.50;99.90;;;;;;5067059;28;20299;-52
2023/01/12 02:09:51;;;;;;;0.83;0.83;;;4.40;99.90;;;;;;5070465;28;20302;-52
2023/01/12 02:18:00;;;;;;;2.20;1.93;;;4.20;99.90;;;;;;5064186;28;20210;-52
2023/01/12 02:20:48;;;;;;;1.73;1.13;;;4.10;99.90;;;;;;5068793;28;20722;-52
2023/01/12 02:23:39;;;;;;;4.10;1.20;;;4.00;99.90;;;;;;5069391;28;20294;-52
2023/01/12 02:26:25;;;;;;;3.73;1.30;;;4.00;99.90;;;;;;5066801;28;20255;-52
2023/01/12 02:29:29;;;;;;;3.13;1.70;;;4.00;99.90;;;;;;5069891;28;20206;-52
2023/01/12 02:32:10;;;;;;;2.10;1.80;;;3.90;99.90;;;;;;5060315;28;20248;-51
2023/01/12 02:34:45;;;;;;;1.17;1.17;;;3.80;99.90;;;;;;5066246;28;20294;-52
2023/01/12 02:37:20;;;;;;;1.80;1.70;;;3.80;99.90;;;;;;5066126;28;20716;-52
2023/01/12 02:39:58;;;;;;;2.40;1.30;;;3.80;99.90;;;;;;5066063;28;20225;-52
2023/01/12 02:42:46;;;;;;;2.80;1.47;;;3.80;99.90;;;;;;5068794;28;20204;-52
2023/01/12 02:45:29;;;;;;;2.47;1.00;;;3.70;99.90;;;;;;5063708;28;20304;-52
2023/01/12 02:48:04;;;;;;;4.23;1.07;;;3.70;99.90;;;;;;5070816;28;20206;-52
2023/01/12 02:50:37;;;;;;;2.77;1.23;;;3.80;99.90;;;;;;5062185;28;20225;-52
2023/01/12 02:53:14;;;;;;;4.27;1.30;;;3.90;99.90;;;;;;5059415;28;20210;-51
2023/01/12 02:55:42;;;;;;;2.50;0.83;;;3.90;99.90;;;;;;5063819;28;20199;-52
2023/01/12 02:58:13;;;;;;;1.47;1.10;;;3.90;99.90;;;;;;5060133;28;20207;-52
2023/01/12 03:00:42;;;;;;;4.20;1.23;;;3.90;99.90;;;;;;5061931;28;20758;-52
2023/01/12 03:03:11;;;;;;;1.47;1.20;;;3.80;99.90;;;;;;5069311;28;20199;-52
2023/01/12 03:05:41;;;;;;;1.30;1.30;;;3.80;99.90;;;;;;5069437;28;20302;-52
2023/01/12 03:08:11;;;;;;;1.40;1.30;;;3.70;99.90;;;;;;5068455;28;20245;-52
2023/01/12 03:11:17;;;;;;;3.90;1.37;;;3.70;99.90;;;;;;5068797;28;20222;-52
2023/01/12 03:13:50;;;;;;;2.50;1.13;;;3.60;99.90;;;;;;5064888;28;20212;-51
2023/01/12 03:16:21;;;;;;;1.13;1.10;;;3.60;99.90;;;;;;5063889;28;20201;-51
2023/01/12 03:18:54;;;;;;;1.70;1.10;;;3.60;99.90;;;;;;5071077;28;20256;-52
2023/01/12 03:21:26;;;;;;;1.30;1.13;;;3.50;99.90;;;;;;5065903;28;20228;-53
2023/01/12 03:23:59;;;;;;;2.40;0.80;;;3.40;99.90;;;;;;5068832;28;20204;-52
2023/01/12 03:26:28;;;;;;;1.50;1.00;;;3.30;99.90;;;;;;5067073;28;20683;-52
2023/01/12 03:29:02;;;;;;;3.13;2.10;;;3.30;99.90;;;;;;5071749;28;20198;-52
2023/01/12 03:31:29;;;;;;;1.70;1.27;;;3.30;99.90;;;;;;5071643;28;20362;-53
2023/01/12 03:33:58;;;;;;;1.67;1.57;;;3.30;99.90;;;;;;5065001;28;20199;-51
2023/01/12 03:36:32;;;;;;;2.97;1.50;;;3.20;99.90;;;;;;5072150;28;20216;-52
2023/01/12 03:39:08;;;;;;;2.00;0.97;;;3.30;99.90;;;;;;5065264;28;20547;-52
2023/01/12 03:41:44;;;;;;;1.40;1.00;;;3.30;99.90;;;;;;5073132;28;20269;-51
2023/01/12 03:44:17;;;;;;;1.57;1.47;;;3.40;99.90;;;;;;5072521;28;20585;-54
2023/01/12 03:46:53;;;;;;;1.40;0.83;;;3.60;99.90;;;;;;5066654;28;20260;-52
2023/01/12 03:49:29;;;;;;;1.40;0.87;;;3.70;99.90;;;;;;5070755;28;20655;-52
2023/01/12 03:51:57;;;;;;;2.30;1.10;;;3.70;99.90;;;;;;5072973;28;20206;-51
2023/01/12 03:54:26;;;;;;;0.80;0.80;;;3.80;99.90;;;;;;5068927;28;20690;-51
2023/01/12 03:56:54;;;;;;;1.17;1.00;;;3.80;99.90;;;;;;5064862;28;20202;-51
2023/01/12 03:59:22;;;;;;;3.40;1.50;;;3.90;99.90;;;;;;5065123;28;20294;-52
2023/01/12 04:01:50;;;;;;;8.20;1.57;;;3.80;99.90;;;;;;5070973;28;20276;-52
2023/01/12 04:04:17;;;;;;;1.00;1.00;;;3.80;99.90;;;;;;5071673;28;20207;-51
2023/01/12 04:06:45;;;;;;;1.57;0.83;;;3.80;99.90;;;;;;5072496;28;20252;-52
2023/01/12 04:09:12;;;;;;;1.37;0.63;;;3.80;99.90;;;;;;5071520;28;20252;-51
2023/01/12 04:14:24;;;;;;;0.70;0.70;;;3.90;99.90;;;;;;5061023;28;20209;-52
2023/01/12 04:16:51;;;;;;;0.93;0.47;;;3.90;99.90;;;;;;5071505;28;20197;-52
2023/01/12 04:19:18;;;;;;;1.37;0.70;;;3.90;99.90;;;;;;5072339;28;20272;-52
2023/01/12 04:24:31;;;;;;;1.70;0.60;;;4.00;99.90;;;;;;5068764;28;21983;-52
2023/01/12 04:26:58;;;;;;;1.80;1.20;;;4.00;99.90;;;;;;5064139;28;20814;-51
2023/01/12 04:29:25;;;;;;;2.60;1.77;;;4.00;99.90;;;;;;5071540;28;20227;-52
2023/01/12 04:31:52;;;;;;;1.10;1.00;;;4.00;99.90;;;;;;5070934;28;20256;-51
2023/01/12 04:34:19;;;;;;;2.10;0.83;;;4.00;99.90;;;;;;5069336;28;20214;-51
2023/01/12 04:36:47;;;;;;;2.87;1.37;;;4.00;99.90;;;;;;5070660;28;20257;-51
2023/01/12 04:39:14;;;;;;;1.90;0.90;;;4.00;99.90;;;;;;5066283;28;20199;-52
2023/01/12 04:41:41;;;;;;;1.17;1.07;;;3.90;99.90;;;;;;5069736;28;20223;-52
2023/01/12 04:44:08;;;;;;;1.00;1.00;;;3.90;99.90;;;;;;5067813;28;20267;-51
2023/01/12 04:46:35;;;;;;;2.30;1.93;;;3.80;99.90;;;;;;5067965;28;20700;-52
2023/01/12 04:49:02;;;;;;;2.37;2.07;;;3.90;99.90;;;;;;5070681;28;20666;-51
2023/01/12 04:51:29;;;;;;;3.10;1.80;;;3.90;99.90;;;;;;5072325;28;20204;-52
2023/01/12 04:53:57;;;;;;;2.87;1.87;;;4.00;99.90;;;;;;5065284;28;20197;-52
2023/01/12 04:56:24;;;;;;;2.90;2.30;;;4.00;99.90;;;;;;5070595;28;20199;-52
2023/01/12 04:58:58;;;;;;;2.87;2.27;;;4.00;99.90;;;;;;5071563;28;20207;-51
2023/01/12 05:01:26;;;;;;;4.93;1.87;;;3.90;99.90;;;;;;5069791;28;20616;-52
2023/01/12 05:03:55;;;;;;;3.50;2.63;;;3.90;99.90;;;;;;5069931;28;20203;-52
2023/01/12 05:06:22;;;;;;;4.47;2.47;;;3.80;99.90;;;;;;5067606;28;20750;-51
2023/01/12 05:11:35;;;;;;;1.77;1.67;;;3.60;99.90;;;;;;5069774;28;20340;-52
2023/01/12 05:14:02;;;;;;;2.30;2.13;;;3.60;99.90;;;;;;5069238;28;20210;-51
2023/01/12 05:16:29;;;;;;;3.47;2.57;;;3.60;99.90;;;;;;5072280;28;20200;-52
2023/01/12 05:18:57;;;;;;;3.87;1.97;;;3.60;99.90;;;;;;5072082;28;20277;-50
2023/01/12 05:21:25;;;;;;;1.90;1.83;;;3.50;99.90;;;;;;5061852;28;20256;-51
2023/01/12 05:23:52;;;;;;;3.13;2.03;;;3.50;99.90;;;;;;5069531;28;20203;-52
2023/01/12 05:26:20;;;;;;;2.70;2.60;;;3.50;99.90;;;;;;5072941;28;20203;-53
2023/01/12 05:28:49;;;;;;;3.10;1.77;;;3.50;99.90;;;;;;5072196;28;20205;-51
2023/01/12 05:31:18;;;;;;;1.70;1.60;;;3.50;99.90;;;;;;5061518;28;20220;-51
2023/01/12 05:33:45;;;;;;;2.63;2.03;;;3.50;99.90;;;;;;5061691;28;20545;-51
2023/01/12 05:36:14;;;;;;;6.90;4.70;;;3.40;99.90;;;;;;5071811;28;20252;-52
2023/01/12 05:38:41;;;;;;;3.40;3.20;;;3.40;99.90;;;;;;5071591;28;20207;-50
2023/01/12 05:41:10;;;;;;;2.73;2.37;;;3.40;99.90;;;;;;5069684;28;20700;-52
2023/01/12 05:43:51;;;;;;;3.40;3.17;;;3.50;99.90;;;;;;5064008;28;20277;-51
2023/01/12 05:46:22;;;;;;;3.33;3.13;;;3.50;99.90;;;;;;5070255;28;20202;-51
2023/01/12 05:48:50;;;;;;;13.83;4.27;;;3.50;99.90;;;;;;5064168;28;20208;-52
2023/01/12 05:51:17;;;;;;;7.50;5.93;;;3.50;99.90;;;;;;5061011;28;20258;-51
2023/01/12 05:53:45;;;;;;;6.77;6.03;;;3.50;99.90;;;;;;5070903;28;20205;-52
2023/01/12 05:56:17;;;;;;;6.73;5.20;;;3.40;99.90;;;;;;5071186;28;20206;-52
2023/01/12 05:58:49;;;;;;;6.47;5.37;;;3.40;99.90;;;;;;5070990;28;20205;-52
2023/01/12 06:01:16;;;;;;;4.30;3.23;;;3.40;99.90;;;;;;5067878;28;20314;-52
2023/01/12 06:03:48;;;;;;;3.33;2.83;;;3.40;99.90;;;;;;5066608;28;20221;-51
2023/01/12 06:06:15;;;;;;;3.53;3.07;;;3.40;99.90;;;;;;5064905;28;20619;-52
2023/01/12 06:08:42;;;;;;;3.50;3.13;;;3.40;99.90;;;;;;5071411;28;20212;-52
2023/01/12 06:13:55;;;;;;;3.77;3.40;;;3.40;99.90;;;;;;5071277;28;20264;-51
2023/01/12 06:13:56;;;;;;;3.70;2.90;;;3.30;99.90;;;;;;5060301;28;20195;-52
2023/01/12 06:16:23;;;;;;;4.60;4.20;;;3.30;99.90;;;;;;5066745;28;20695;-52
2023/01/12 06:18:52;;;;;;;4.83;4.43;;;3.20;99.90;;;;;;5065263;28;20237;-52
2023/01/12 06:21:19;;;;;;;5.27;4.77;;;3.20;99.90;;;;;;5071701;28;20304;-51
2023/01/12 06:23:46;;;;;;;9.17;8.27;;;3.10;99.90;;;;;;5065346;28;20202;-51
2023/01/12 06:26:13;;;;;;;8.23;6.67;;;3.10;99.90;;;;;;5069123;28;20257;-52
2023/01/12 06:28:41;;;;;;;5.63;4.90;;;3.10;99.90;;;;;;5060700;28;20580;-52
2023/01/12 06:31:10;;;;;;;8.10;6.13;;;3.10;99.90;;;;;;5051499;28;20224;-51
2023/01/12 06:33:38;;;;;;;6.67;6.07;;;3.10;99.90;;;;;;5050905;28;20239;-52
2023/01/12 06:36:07;;;;;;;3.47;3.22;;;3.10;99.90;;;;;;5063766;28;20964;-51
2023/01/12 06:38:36;;;;;;;4.20;3.30;;;3.20;99.90;;;;;;5070913;28;20198;-50
2023/01/12 06:41:04;;;;;;;2.60;2.40;;;3.10;99.90;;;;;;5071275;28;20258;-51
2023/01/12 06:43:32;;;;;;;3.40;1.27;;;3.10;99.90;;;;;;5070970;28;20285;-50
2023/01/12 06:45:59;;;;;;;5.63;3.93;;;3.20;99.90;;;;;;5070331;28;20200;-50
2023/01/12 06:48:26;;;;;;;3.00;2.80;;;3.20;99.90;;;;;;5061728;28;20206;-51
2023/01/12 06:50:55;;;;;;;2.20;1.40;;;3.30;99.90;;;;;;5050712;28;20644;-52
2023/01/12 06:53:23;;;;;;;2.97;1.80;;;3.40;99.90;;;;;;5054792;28;20299;-51
2023/01/12 06:55:51;;;;;;;2.13;1.40;;;3.50;99.90;;;;;;5069324;28;20195;-52
2023/01/12 06:58:18;;;;;;;1.53;1.30;;;3.60;99.90;;;;;;5077338;28;20738;-51
2023/01/12 07:00:45;;;;;;;3.23;2.27;;;3.60;99.90;;;;;;5077950;28;20218;-51
2023/01/12 07:03:16;;;;;;;3.27;1.87;;;3.60;99.90;;;;;;5077270;28;20216;-51
2023/01/12 07:05:43;;;;;;;3.07;2.37;;;3.70;99.90;;;;;;5075071;28;20291;-51
2023/01/12 07:08:14;;;;;;;3.33;2.00;;;3.80;99.90;;;;;;5077189;28;20229;-52
2023/01/12 07:10:43;;;;;;;1.80;1.40;;;3.80;99.90;;;;;;5077572;28;20220;-51
2023/01/12 07:13:10;;;;;;;7.80;4.80;;;3.80;99.90;;;;;;5075420;28;20268;-53
2023/01/12 07:15:37;;;;;;;2.17;2.07;;;3.80;99.90;;;;;;5076136;28;20198;-52
2023/01/12 07:18:04;;;;;;;6.03;5.23;;;3.80;99.90;;;;;;5077323;28;20278;-52
2023/01/12 07:20:32;;;;;;;2.57;2.40;;;3.90;99.90;;;;;;5077127;28;20226;-52
2023/01/12 07:22:59;;;;;;;13.07;9.17;;;3.90;99.90;;;;;;5062969;28;20206;-52
2023/01/12 07:25:26;;;;;;;20.57;14.93;;;3.90;99.90;;;;;;5067192;28;20266;-53
2023/01/12 07:27:56;;;;;;;7.93;3.50;;;3.90;99.90;;;;;;5070655;28;20205;-52
2023/01/12 07:30:24;;;;;;;6.17;5.00;;;3.90;99.90;;;;;;5077212;28;20226;-52
2023/01/12 07:32:52;;;;;;;14.90;13.37;;;3.90;99.90;;;;;;5077082;28;20193;-52
2023/01/12 07:35:20;;;;;;;11.40;8.97;;;3.90;99.90;;;;;;5076082;28;20208;-52
2023/01/12 07:37:48;;;;;;;21.63;19.30;;;3.90;99.90;;;;;;5077096;28;20197;-51
2023/01/12 07:40:15;;;;;;;11.20;10.10;;;4.00;99.90;;;;;;5061048;28;20273;-51
2023/01/12 07:42:42;;;;;;;11.63;10.03;;;4.00;99.90;;;;;;5069602;28;20305;-52
2023/01/12 07:45:11;;;;;;;9.80;7.20;;;4.10;99.90;;;;;;5073192;28;20598;-52
2023/01/12 07:47:39;;;;;;;7.03;5.87;;;4.10;99.90;;;;;;5072837;28;20720;-51
2023/01/12 07:50:06;;;;;;;4.97;4.47;;;4.10;99.90;;;;;;5075681;28;20691;-52
2023/01/12 07:52:33;;;;;;;2.90;2.77;;;4.10;99.90;;;;;;5075868;28;20203;-54
2023/01/12 07:55:00;;;;;;;5.33;3.30;;;4.10;99.90;;;;;;5064108;28;20677;-53
2023/01/12 07:57:28;;;;;;;1.50;1.40;;;4.20;99.90;;;;;;5068060;28;20209;-52
2023/01/12 07:59:55;;;;;;;2.23;1.43;;;4.40;99.90;;;;;;5076756;28;20680;-52
2023/01/12 08:02:24;;;;;;;2.63;1.83;;;4.50;99.90;;;;;;5076776;28;20226;-52
2023/01/12 08:04:51;;;;;;;1.57;1.47;;;4.60;99.90;;;;;;5073010;28;20203;-53
2023/01/12 08:07:18;;;;;;;1.60;1.50;;;4.70;99.90;;;;;;5073952;28;20205;-52
2023/01/12 08:09:45;;;;;;;4.03;1.50;;;5.00;99.90;;;;;;5072795;28;20231;-52
2023/01/12 08:12:12;;;;;;;3.20;1.30;;;5.10;99.90;;;;;;5073711;28;20622;-52
2023/01/12 08:14:41;;;;;;;6.07;1.30;;;5.10;99.90;;;;;;5060276;28;20206;-52
2023/01/12 08:17:16;;;;;;;2.20;1.43;;;5.20;99.90;;;;;;5073537;28;20191;-52
2023/01/12 08:19:49;;;;;;;3.77;1.07;;;5.20;99.90;;;;;;5073536;28;20761;-52
2023/01/12 08:22:21;;;;;;;1.73;1.50;;;5.30;99.90;;;;;;5073540;28;20218;-52
2023/01/12 08:24:52;;;;;;;1.37;1.10;;;5.30;99.90;;;;;;5067540;28;20206;-52
2023/01/12 08:27:23;;;;;;;3.33;1.13;;;5.20;99.90;;;;;;5073503;28;20199;-52
2023/01/12 08:29:53;;;;;;;1.83;1.43;;;5.20;99.90;;;;;;5069029;28;20231;-52
2023/01/12 08:32:21;;;;;;;1.47;1.13;;;5.20;99.90;;;;;;5053384;28;20213;-52
2023/01/12 08:34:52;;;;;;;1.80;1.70;;;5.20;99.90;;;;;;5059980;28;20199;-51
2023/01/12 08:37:22;;;;;;;1.57;1.23;;;5.30;99.90;;;;;;5073422;28;20195;-52
2023/01/12 08:39:50;;;;;;;3.03;1.37;;;5.20;99.90;;;;;;5073325;28;20224;-52
2023/01/12 08:42:17;;;;;;;2.60;1.43;;;5.20;99.90;;;;;;5073285;28;20232;-52
2023/01/12 08:44:45;;;;;;;1.30;1.20;;;5.20;99.90;;;;;;5067603;28;20208;-51
2023/01/12 08:47:17;;;;;;;3.17;1.10;;;5.20;99.90;;;;;;5072045;28;20207;-52
2023/01/12 08:49:45;;;;;;;1.80;1.10;;;5.20;99.90;;;;;;5092413;28;20262;-52
2023/01/12 08:52:15;;;;;;;1.27;1.27;;;5.20;99.90;;;;;;5099006;22;20259;-51
2023/01/12 08:54:43;;;;;;;2.40;2.20;;;5.20;99.90;;;;;;5071526;28;20214;-50
2023/01/12 08:57:10;;;;;;;4.87;2.43;;;5.20;99.90;;;;;;5072660;28;20223;-48
2023/01/12 08:59:37;;;;;;;2.73;2.53;;;5.20;99.90;;;;;;5072873;28;20217;-51
2023/01/12 09:02:04;;;;;;;2.20;1.23;;;5.30;99.90;;;;;;5072698;28;20579;-50
2023/01/12 09:04:31;;;;;;;1.37;1.10;;;5.30;99.90;;;;;;5070484;28;20215;-51
2023/01/12 09:06:58;;;;;;;4.50;1.97;;;5.40;99.90;;;;;;5068684;28;20204;-48
2023/01/12 09:09:27;;;;;;;2.33;0.83;;;5.40;99.90;;;;;;5070379;28;20207;-52
2023/01/12 09:11:54;;;;;;;2.53;1.07;;;5.50;99.90;;;;;;5072711;28;20230;-51
2023/01/12 09:14:21;;;;;;;1.43;1.03;;;5.60;99.90;;;;;;5071579;28;20308;-50
2023/01/12 09:16:48;;;;;;;2.00;1.03;;;5.50;99.90;;;;;;5070527;28;20199;-48
2023/01/12 09:19:15;;;;;;;1.23;0.50;;;5.60;99.90;;;;;;5071770;28;20204;-49
2023/01/12 09:21:42;;;;;;;1.23;0.50;;;5.70;99.90;;;;;;5072264;28;20786;-50
2023/01/12 09:24:11;;;;;;;0.30;0.30;;;5.70;99.90;;;;;;5068259;28;20240;-49
2023/01/12 09:26:42;;;;;;;0.70;0.70;;;5.70;99.90;;;;;;5071597;28;20334;-49
2023/01/12 09:29:10;;;;;;;1.13;0.60;;;5.70;99.90;;;;;;5072510;28;20251;-50
2023/01/12 09:31:38;;;;;;;4.63;0.90;;;5.70;99.90;;;;;;5070713;28;20219;-49
2023/01/12 09:34:06;;;;;;;1.27;1.03;;;5.70;99.90;;;;;;5067246;28;20730;-48
2023/01/12 09:36:36;;;;;;;1.30;0.50;;;5.70;99.90;;;;;;5072537;28;20206;-49
2023/01/12 09:39:03;;;;;;;1.70;0.50;;;5.80;99.90;;;;;;5072536;28;20201;-48
2023/01/12 09:47:19;;;;;;;0.47;0.47;;;6.10;99.90;;;;;;5072930;28;20233;-49
2023/01/12 09:49:49;;;;;;;0.70;0.50;;;6.10;99.90;;;;;;5078499;28;20286;-49
2023/01/12 09:52:19;;;;;;;1.47;1.23;;;6.10;99.90;;;;;;5076087;28;20263;-50
2023/01/12 09:54:49;;;;;;;2.20;0.43;;;6.10;99.90;;;;;;5077599;28;20227;-50
2023/01/12 09:57:48;;;;;;;0.77;0.60;;;6.00;99.90;;;;;;5078657;28;20226;-50
2023/01/12 10:00:18;;;;;;;0.90;0.80;;;6.10;99.90;;;;;;5078103;28;20231;-50
2023/01/12 10:02:50;;;;;;;1.17;0.50;;;6.00;99.90;;;;;;5075404;28;20268;-49
2023/01/12 10:05:28;;;;;;;2.43;0.60;;;6.00;99.90;;;;;;5077045;28;20215;-49
2023/01/12 10:07:56;;;;;;;1.17;0.60;;;6.10;99.90;;;;;;5077046;28;20191;-50
2023/01/12 10:10:23;;;;;;;0.77;0.60;;;6.20;99.90;;;;;;5068993;28;20255;-49
2023/01/12 10:12:55;;;;;;;0.73;0.70;;;6.10;99.90;;;;;;5071669;28;20664;-51
2023/01/12 10:15:40;;;;;;;0.70;0.70;;;6.20;99.90;;;;;;5070508;28;20202;-50
2023/01/12 10:18:14;;;;;;;1.43;0.50;;;6.30;99.90;;;;;;5065058;28;20265;-49
2023/01/12 10:20:43;;;;;;;0.60;0.60;;;6.30;99.90;;;;;;5071622;28;20274;-50
2023/01/12 10:23:15;;;;;;;1.90;0.70;;;6.40;99.90;;;;;;5071443;28;20651;-48
2023/01/12 10:25:46;;;;;;;1.40;0.77;;;6.50;99.90;;;;;;5070292;28;20584;-49
2023/01/12 10:28:17;;;;;;;4.87;3.30;;;6.70;99.90;;;;;;5068262;28;20205;-48
2023/01/12 10:30:46;;;;;;;4.93;4.27;;;6.80;99.90;;;;;;5071305;28;20239;-50
2023/01/12 10:33:16;;;;;;;3.63;3.40;;;6.80;99.90;;;;;;5071312;28;20271;-48
2023/01/12 10:35:56;;;;;;;2.53;2.33;;;6.80;99.90;;;;;;5070392;28;20801;-49
2023/01/12 10:38:30;;;;;;;3.13;2.40;;;6.70;99.90;;;;;;5071129;28;20700;-49
2023/01/12 10:41:06;;;;;;;2.53;1.30;;;6.70;99.90;;;;;;5071133;28;20299;-49
2023/01/12 10:43:34;;;;;;;1.77;1.00;;;6.70;99.90;;;;;;5070849;28;20229;-49
2023/01/12 10:46:09;;;;;;;1.30;0.90;;;6.60;99.90;;;;;;5070021;28;20208;-48
2023/01/12 10:48:38;;;;;;;2.27;1.30;;;6.60;99.90;;;;;;5071723;28;20269;-49
2023/01/12 10:51:07;;;;;;;1.50;1.40;;;6.70;99.90;;;;;;5071256;28;20644;-49
2023/01/12 10:53:43;;;;;;;2.73;0.90;;;6.70;99.90;;;;;;5071003;28;20203;-49
2023/01/12 10:56:24;;;;;;;0.60;0.60;;;6.60;99.90;;;;;;5070859;28;20198;-50
2023/01/12 10:58:54;;;;;;;1.17;0.63;;;6.60;99.90;;;;;;5071186;28;20260;-49
2023/01/12 11:01:22;;;;;;;2.40;0.57;;;6.60;99.90;;;;;;5070863;28;20224;-50
2023/01/12 11:03:50;;;;;;;3.47;0.60;;;6.60;99.90;;;;;;5080480;28;20221;-50
2023/01/12 11:06:26;;;;;;;0.30;0.30;;;6.60;99.90;;;;;;5065758;28;20317;-50
2023/01/12 11:08:54;;;;;;;1.57;0.67;;;6.50;99.90;;;;;;5071134;28;20205;-49
2023/01/12 11:11:29;;;;;;;0.80;0.80;;;6.50;99.90;;;;;;5070820;28;20261;-49
2023/01/12 11:13:58;;;;;;;0.77;0.77;;;6.50;99.90;;;;;;5069722;28;20205;-50
2023/01/12 11:16:31;;;;;;;2.00;0.90;;;6.40;99.90;;;;;;5071010;28;20303;-48
2023/01/12 11:19:15;;;;;;;1.57;1.40;;;6.40;99.90;;;;;;5051132;28;20265;-50
2023/01/12 11:21:47;;;;;;;3.00;1.70;;;6.50;99.90;;;;;;5070786;28;20266;-50
2023/01/12 11:24:26;;;;;;;3.13;1.97;;;6.50;99.90;;;;;;5069741;28;20324;-49
2023/01/12 11:26:58;;;;;;;2.70;1.30;;;6.60;99.90;;;;;;5070885;28;20268;-49
2023/01/12 11:29:35;;;;;;;1.70;1.23;;;6.50;99.90;;;;;;5069834;28;20205;-49
2023/01/12 11:32:11;;;;;;;1.93;1.10;;;6.50;99.90;;;;;;5065123;28;20214;-49
2023/01/12 11:34:45;;;;;;;2.27;0.80;;;6.50;99.90;;;;;;5069789;28;20226;-50
2023/01/12 11:37:14;;;;;;;1.23;0.60;;;6.50;99.90;;;;;;5071037;28;20203;-48
2023/01/12 11:39:44;;;;;;;0.60;0.60;;;6.50;99.90;;;;;;5072118;28;20197;-49
2023/01/12 11:45:12;;;;;;;2.70;0.70;;;6.50;99.90;;;;;;5067171;28;20199;-49
2023/01/12 11:47:47;;;;;;;1.53;1.03;;;6.50;99.90;;;;;;5084963;28;20200;-49
2023/01/12 11:50:16;;;;;;;2.13;1.93;;;6.50;99.90;;;;;;5094600;28;20206;-50
2023/01/12 11:52:45;;;;;;;3.97;1.90;;;6.60;99.90;;;;;;5085677;28;20228;-49
2023/01/12 11:55:17;;;;;;;1.27;1.10;;;6.60;99.90;;;;;;5073242;28;20193;-49
2023/01/12 11:58:00;;;;;;;1.30;1.17;;;6.60;99.90;;;;;;5073924;28;20204;-50
2023/01/12 12:00:52;;;;;;;2.70;1.50;;;6.60;99.90;;;;;;5074103;28;20222;-50
2023/01/12 12:03:49;;;;;;;1.07;0.97;;;6.60;99.90;;;;;;5073194;28;20254;-50
2023/01/12 12:06:50;;;;;;;1.43;0.70;;;6.70;99.90;;;;;;5068784;28;20204;-49
2023/01/12 12:09:31;;;;;;;2.27;1.00;;;6.70;99.90;;;;;;5017790;28;20198;-49
2023/01/12 12:12:00;;;;;;;0.80;0.50;;;6.70;99.90;;;;;;5071109;28;20220;-49
2023/01/12 12:14:53;;;;;;;2.20;0.53;;;6.70;99.90;;;;;;5073525;28;20201;-50
2023/01/12 12:17:28;;;;;;;1.63;0.40;;;6.70;99.90;;;;;;5053748;28;20576;-49
2023/01/12 12:20:07;;;;;;;2.53;0.40;;;6.80;99.90;;;;;;5053909;28;20590;-50
2023/01/12 12:22:53;;;;;;;0.90;0.30;;;6.80;99.90;;;;;;5058584;28;20272;-49
2023/01/12 12:25:27;;;;;;;1.23;0.63;;;6.90;99.90;;;;;;5073336;28;20203;-49
2023/01/12 12:28:07;;;;;;;2.03;0.50;;;6.80;99.90;;;;;;5073441;28;20255;-50
2023/01/12 12:31:02;;;;;;;0.30;0.30;;;6.90;99.90;;;;;;5070002;28;20223;-50
2023/01/12 12:33:39;;;;;;;0.57;0.57;;;6.90;99.90;;;;;;5072300;28;20259;-49
2023/01/12 12:36:17;;;;;;;0.40;0.40;;;6.90;99.90;;;;;;5066688;28;20259;-48
2023/01/12 12:39:18;;;;;;;0.50;0.50;;;7.00;99.90;;;;;;5073535;28;20213;-50
2023/01/12 12:47:44;;;;;;;1.60;0.50;;;7.00;99.90;;;;;;5073316;28;20272;-51
2023/01/12 12:50:20;;;;;;;0.60;0.60;;;7.10;99.90;;;;;;5072777;28;20661;-51
2023/01/12 12:53:00;;;;;;;0.60;0.60;;;7.00;99.90;;;;;;5072444;28;20196;-50
2023/01/12 12:55:28;;;;;;;1.10;0.80;;;7.00;99.90;;;;;;5068104;28;20684;-50
2023/01/12 12:58:06;;;;;;;0.80;0.60;;;7.10;99.90;;;;;;5072936;28;20264;-50
2023/01/12 13:00:41;;;;;;;2.60;0.90;;;7.10;99.90;;;;;;5072853;28;20265;-49
2023/01/12 13:03:09;;;;;;;3.90;2.00;;;7.10;99.90;;;;;;5076351;28;20412;-50
2023/01/12 13:05:42;;;;;;;1.50;1.40;;;7.10;99.90;;;;;;5072709;28;20225;-50
2023/01/12 13:08:21;;;;;;;2.73;1.20;;;7.20;99.90;;;;;;5073000;28;20638;-50
2023/01/12 13:10:55;;;;;;;1.97;1.43;;;7.20;99.90;;;;;;5072905;28;20276;-50
2023/01/12 13:13:33;;;;;;;2.83;1.10;;;7.30;99.90;;;;;;5071963;28;20193;-50
2023/01/12 13:16:40;;;;;;;3.10;1.73;;;7.40;99.90;;;;;;5064739;28;20726;-48
2023/01/12 13:19:12;;;;;;;2.47;0.90;;;7.40;99.90;;;;;;5069208;28;20205;-49
2023/01/12 13:21:58;;;;;;;3.60;1.63;;;7.30;99.90;;;;;;5072526;28;20218;-50
2023/01/12 13:24:38;;;;;;;9.03;2.33;;;7.40;99.90;;;;;;5071374;28;20307;-48
2023/01/12 13:27:46;;;;;;;4.90;2.93;;;7.40;99.90;;;;;;5069361;28;20203;-49
2023/01/12 13:30:37;;;;;;;2.37;2.20;;;7.40;99.90;;;;;;5064168;28;20264;-50
2023/01/12 13:33:20;;;;;;;2.27;2.00;;;7.40;99.90;;;;;;5071284;28;20201;-50
2023/01/12 13:36:11;;;;;;;1.83;1.63;;;7.40;99.90;;;;;;5064351;28;20263;-49
2023/01/12 13:39:02;;;;;;;3.53;1.33;;;7.40;99.90;;;;;;5072439;28;20196;-49
2023/01/12 13:44:23;;;;;;;2.70;2.50;;;7.40;99.90;;;;;;5066000;28;20220;-49
2023/01/12 13:46:52;;;;;;;2.73;2.23;;;7.40;99.90;;;;;;5072160;28;20207;-49
2023/01/12 13:49:31;;;;;;;2.17;1.60;;;7.40;99.90;;;;;;5072263;28;20578;-51
2023/01/12 13:52:01;;;;;;;2.17;1.80;;;7.50;99.90;;;;;;5070774;28;20238;-49
2023/01/12 13:54:29;;;;;;;4.10;2.20;;;7.50;99.90;;;;;;5071347;28;20566;-49
2023/01/12 13:57:00;;;;;;;2.83;1.47;;;7.50;99.90;;;;;;5071777;28;20207;-50
2023/01/12 13:59:28;;;;;;;2.40;1.73;;;7.50;99.90;;;;;;5072069;28;20266;-49